logo
Rechercher aéroport 
image banner adimage banner adimage banner ad
image banner ad

FACZ - Cedarville

Situé à , South Africa

ICAO - , IATA -

Données fournies par Airmate  

Information générale

Coordonnées: S30°22'48" E29°1'44"
Élévation : 4766 feet MSL.
 
Voir autres Aéroports à Kwazulu-Natal

Données opérationnelles

Special qualification required
Heure actuelle UTC:
Heure actuelle locale:
Météo à : - ( 0 km )
METAR: KSBD 171654Z 00000KT 3SM HZ SCT010 OVC016 18/12 A2977
Voir NOTAMs / SUP AIP / TFR affectant cet aéroport [VIEW]
Fréquences de communication: [VIEW]

Pistes:

Coordonnées de l'aéroport

Adresse: South Africa

Vue satellite de FACZ